Time;durP1;ratioP1;P1;durP2;ratioP2;P2;SDS_P1;SDS_P2;PMS_P1;PMS_P2;Temp;Humidity;BMP_temperature;BMP_pressure;BME280_temperature;BME280_humidity;BME280_pressure;Samples;Min_cycle;Max_cycle;Signal;HPM_P1;HPM_P2
2023/01/12 00:02:18;;;;;;;0.30;0.20;;;;;;;8.47;74.56;95263.31;5071622;28;20425;-60
2023/01/12 00:04:46;;;;;;;0.30;0.20;;;;;;;8.38;75.24;95270.91;5070863;28;20426;-60
2023/01/12 00:07:16;;;;;;;0.30;0.30;;;;;;;8.24;75.10;95222.25;5071649;28;20845;-60
2023/01/12 00:09:45;;;;;;;0.30;0.20;;;;;;;8.49;75.31;95263.84;5072023;28;20430;-60
2023/01/12 00:12:13;;;;;;;0.30;0.20;;;;;;;8.08;77.01;95257.50;5071716;28;20468;-60
2023/01/12 00:14:42;;;;;;;0.30;0.20;;;;;;;8.37;76.62;95271.19;5072072;28;20457;-60
2023/01/12 00:17:15;;;;;;;0.43;0.40;;;;;;;8.07;77.12;95264.63;5071913;28;20505;-60
2023/01/12 00:19:45;;;;;;;0.80;0.80;;;;;;;7.71;79.16;95272.56;5071740;28;20921;-60
2023/01/12 00:22:18;;;;;;;0.60;0.50;;;;;;;7.23;85.60;95281.38;5072051;28;20432;-60
2023/01/12 00:24:48;;;;;;;0.47;0.47;;;;;;;7.88;84.08;95276.66;5071856;28;20484;-60
2023/01/12 00:27:19;;;;;;;0.50;0.50;;;;;;;8.16;80.80;95278.16;5071811;28;20512;-60
2023/01/12 00:29:47;;;;;;;0.30;0.20;;;;;;;8.12;80.89;95285.78;5071315;28;20454;-60
2023/01/12 00:32:17;;;;;;;12.53;0.83;;;;;;;7.92;79.29;95245.28;5071740;28;20791;-60
2023/01/12 00:34:48;;;;;;;0.67;0.67;;;;;;;7.13;86.01;95287.34;5071860;28;20502;-60
2023/01/12 00:37:16;;;;;;;1.07;1.07;;;;;;;6.66;94.65;95265.97;5071648;28;21004;-60
2023/01/12 00:39:45;;;;;;;0.60;0.30;;;;;;;6.46;99.85;95283.38;5071254;28;20520;-60
2023/01/12 00:45:24;;;;;;;0.50;0.50;;;;;;;6.14;100.00;95305.06;5046661;28;20481;-60
2023/01/12 00:47:53;;;;;;;2.93;0.87;;;;;;;6.22;100.00;95302.00;5071442;28;20436;-60
2023/01/12 00:50:23;;;;;;;0.70;0.70;;;;;;;6.31;100.00;95303.19;5071401;28;20877;-60
2023/01/12 00:52:51;;;;;;;0.33;0.27;;;;;;;6.39;100.00;95310.69;5071525;28;20486;-60
2023/01/12 00:55:19;;;;;;;1.20;0.50;;;;;;;6.24;100.00;95309.66;5071143;28;21161;-60
2023/01/12 00:57:48;;;;;;;1.53;0.50;;;;;;;5.77;100.00;95257.38;5071463;28;20794;-60
2023/01/12 01:00:17;;;;;;;1.43;1.07;;;;;;;6.49;100.00;95304.75;5071604;28;20446;-60
2023/01/12 01:02:46;;;;;;;0.63;0.60;;;;;;;6.07;100.00;95314.94;5071738;28;20535;-60
2023/01/12 01:05:16;;;;;;;1.47;1.07;;;;;;;5.85;100.00;95318.53;5070874;28;20438;-60
2023/01/12 01:07:46;;;;;;;0.53;0.53;;;;;;;6.08;100.00;95315.75;5071181;28;20479;-60
2023/01/12 01:10:16;;;;;;;0.50;0.47;;;;;;;5.37;100.00;95193.69;5071178;28;20523;-60
2023/01/12 01:12:44;;;;;;;5.63;1.23;;;;;;;6.56;100.00;95283.50;5075531;28;20448;-60
2023/01/12 01:15:13;;;;;;;0.30;0.30;;;;;;;5.78;96.24;95105.66;5075265;28;20424;-60
2023/01/12 01:17:41;;;;;;;0.40;0.40;;;;;;;6.86;95.13;95320.72;5075034;28;20944;-60
2023/01/12 01:20:11;;;;;;;3.67;0.93;;;;;;;6.66;97.57;95323.13;5074715;28;20476;-60
2023/01/12 01:22:39;;;;;;;1.17;1.07;;;;;;;6.35;98.12;95299.03;5074759;28;21011;-60
2023/01/12 01:25:09;;;;;;;0.60;0.60;;;;;;;6.61;98.62;95317.78;5075141;28;20417;-60
2023/01/12 01:27:38;;;;;;;1.37;1.30;;;;;;;6.47;100.00;95316.56;5074791;28;20497;-60
2023/01/12 01:30:07;;;;;;;0.50;0.47;;;;;;;6.45;100.00;95321.28;5074486;28;20492;-60
2023/01/12 01:32:36;;;;;;;0.50;0.40;;;;;;;6.60;100.00;95313.56;5076031;28;20422;-60
2023/01/12 01:35:05;;;;;;;0.40;0.40;;;;;;;6.49;98.24;95328.44;5075555;28;20543;-60
2023/01/12 01:37:33;;;;;;;0.30;0.30;;;;;;;6.20;99.27;95272.50;5074854;28;20426;-60
2023/01/12 01:40:02;;;;;;;0.67;0.63;;;;;;;6.88;95.50;95323.94;5074680;28;20942;-60
2023/01/12 01:42:31;;;;;;;0.30;0.20;;;;;;;6.32;97.87;95322.44;5074758;28;20430;-60
2023/01/12 01:45:02;;;;;;;1.07;0.97;;;;;;;6.82;97.92;95324.91;5074771;28;20540;-60
2023/01/12 01:47:37;;;;;;;0.30;0.23;;;;;;;7.02;92.41;95317.25;5074573;28;20528;-60
2023/01/12 01:50:14;;;;;;;0.30;0.30;;;;;;;7.29;95.18;95325.16;5074399;28;20580;-61
2023/01/12 01:52:47;;;;;;;0.70;0.70;;;;;;;6.48;92.60;95305.00;5074479;28;20512;-60
2023/01/12 01:55:22;;;;;;;0.50;0.40;;;;;;;6.50;95.85;95330.03;5074357;28;20483;-60
2023/01/12 01:57:57;;;;;;;0.50;0.40;;;;;;;6.78;93.17;95339.63;5074461;28;20433;-60
2023/01/12 02:00:25;;;;;;;0.30;0.20;;;;;;;6.80;90.55;95327.81;5074399;28;20433;-61
2023/01/12 02:02:55;;;;;;;0.50;0.37;;;;;;;6.21;92.20;95281.19;5073886;28;20525;-60
2023/01/12 02:05:26;;;;;;;5.83;0.47;;;;;;;6.92;90.02;95338.19;5073900;28;20421;-60
2023/01/12 02:07:58;;;;;;;0.57;0.50;;;;;;;6.95;89.86;95332.44;5074387;28;20422;-60
2023/01/12 02:10:27;;;;;;;0.60;0.60;;;;;;;6.94;90.08;95336.13;5074089;28;20923;-60
2023/01/12 02:18:45;;;;;;;0.70;0.70;;;;;;;6.29;96.95;95346.59;5073900;28;20525;-60
2023/01/12 02:21:37;;;;;;;0.50;0.30;;;;;;;6.55;98.87;95337.22;5073440;28;20440;-60
2023/01/12 02:24:39;;;;;;;0.70;0.70;;;;;;;6.49;94.13;95332.91;5074051;28;20438;-60
2023/01/12 02:27:21;;;;;;;0.70;0.30;;;;;;;6.65;95.40;95322.34;5071552;28;20980;-60
2023/01/12 02:30:23;;;;;;;0.30;0.20;;;;;;;6.51;94.79;95294.75;5073771;28;20459;-60
2023/01/12 02:33:05;;;;;;;0.80;0.80;;;;;;;5.92;94.10;95346.28;5073765;28;20433;-60
2023/01/12 02:35:43;;;;;;;0.57;0.57;;;;;;;5.48;100.00;95342.63;5073601;28;20571;-60
2023/01/12 02:38:21;;;;;;;0.80;0.80;;;;;;;5.32;100.00;95348.66;5073619;28;20452;-60
2023/01/12 02:41:00;;;;;;;2.80;2.07;;;;;;;5.04;100.00;95330.25;5073606;28;20429;-60
2023/01/12 02:43:30;;;;;;;2.00;1.60;;;;;;;5.10;100.00;95361.66;5073551;28;20425;-60
2023/01/12 02:46:10;;;;;;;1.07;1.07;;;;;;;5.73;100.00;95352.78;5072299;28;20520;-60
2023/01/12 02:48:46;;;;;;;0.43;0.43;;;;;;;6.15;98.42;95355.84;5073160;28;20863;-60
2023/01/12 02:51:18;;;;;;;1.23;0.30;;;;;;;6.13;94.57;95326.34;5072676;28;20429;-60
2023/01/12 02:53:50;;;;;;;0.30;0.30;;;;;;;6.44;92.57;95346.81;5072575;28;21036;-60
2023/01/12 02:56:24;;;;;;;1.30;1.30;;;;;;;6.60;90.98;95355.72;5072753;28;20429;-60
2023/01/12 02:58:56;;;;;;;0.30;0.30;;;;;;;6.43;89.67;95310.16;5073198;28;20812;-60
2023/01/12 03:01:27;;;;;;;0.40;0.40;;;;;;;6.09;95.49;95349.72;5072936;28;20429;-60
2023/01/12 03:04:01;;;;;;;0.80;0.80;;;;;;;4.93;100.00;95360.75;5073008;28;20430;-60
2023/01/12 03:06:41;;;;;;;0.63;0.63;;;;;;;4.31;100.00;95357.13;5073335;28;20453;-60
2023/01/12 03:09:10;;;;;;;0.50;0.50;;;;;;;4.03;100.00;95350.94;5073224;28;20488;-60
2023/01/12 03:11:43;;;;;;;0.57;0.50;;;;;;;4.23;100.00;95359.28;5072067;28;20461;-60
2023/01/12 03:14:14;;;;;;;0.50;0.50;;;;;;;4.41;100.00;95351.28;5072846;28;20519;-60
2023/01/12 03:16:42;;;;;;;0.60;0.60;;;;;;;4.18;100.00;95348.66;5072853;28;20434;-60
2023/01/12 03:19:16;;;;;;;7.20;0.60;;;;;;;4.48;100.00;95344.09;5073113;28;20430;-60
2023/01/12 03:21:49;;;;;;;0.80;0.80;;;;;;;4.46;100.00;95344.31;5072263;28;20458;-60
2023/01/12 03:24:23;;;;;;;0.60;0.60;;;;;;;4.40;100.00;95342.59;5073117;28;20888;-60
2023/01/12 03:26:56;;;;;;;0.40;0.30;;;;;;;4.26;100.00;95328.16;5072697;28;20952;-60
2023/01/12 03:29:30;;;;;;;1.07;0.30;;;;;;;4.46;100.00;95340.91;5072528;28;20437;-60
2023/01/12 03:31:59;;;;;;;1.50;1.00;;;;;;;4.79;100.00;95348.13;5072751;28;20457;-60
2023/01/12 03:34:29;;;;;;;0.40;0.30;;;;;;;4.60;100.00;95337.00;5071955;28;20470;-60
2023/01/12 03:37:03;;;;;;;0.67;0.67;;;;;;;4.82;100.00;95350.31;5072664;28;20429;-60
2023/01/12 03:39:38;;;;;;;0.30;0.20;;;;;;;5.39;100.00;95351.16;5072466;28;20479;-60
2023/01/12 03:42:12;;;;;;;0.47;0.30;;;;;;;5.64;100.00;95357.63;5072673;28;20515;-60
2023/01/12 03:44:53;;;;;;;0.50;0.50;;;;;;;5.62;100.00;95358.88;5072672;28;20443;-60
2023/01/12 03:47:27;;;;;;;0.80;0.80;;;;;;;5.98;100.00;95362.94;5072619;28;20462;-60
2023/01/12 03:50:02;;;;;;;0.40;0.40;;;;;;;6.27;97.74;95361.81;5072274;28;20494;-60
2023/01/12 03:52:34;;;;;;;1.17;1.17;;;;;;;6.39;94.79;95379.13;5072286;28;20430;-60
2023/01/12 03:55:06;;;;;;;0.50;0.30;;;;;;;6.17;94.00;95359.81;5072433;28;20473;-60
2023/01/12 03:57:36;;;;;;;0.30;0.20;;;;;;;6.01;96.79;95371.16;5073109;28;20430;-60
2023/01/12 04:00:07;;;;;;;1.53;0.83;;;;;;;5.65;98.92;95374.19;5072771;28;20945;-60
2023/01/12 04:02:35;;;;;;;0.63;0.33;;;;;;;5.25;100.00;95370.84;5071948;28;20455;-60
2023/01/12 04:05:07;;;;;;;4.83;1.10;;;;;;;4.80;100.00;95376.00;5072052;28;20424;-60
2023/01/12 04:07:35;;;;;;;2.30;1.73;;;;;;;4.61;100.00;95377.97;5071962;28;20422;-60
2023/01/12 04:10:04;;;;;;;1.20;1.13;;;;;;;4.35;100.00;95365.34;5072244;28;20422;-60
2023/01/12 04:12:32;;;;;;;0.43;0.43;;;;;;;5.11;100.00;95388.69;5072160;28;20420;-60
2023/01/12 04:15:00;;;;;;;1.63;1.53;;;;;;;5.38;100.00;95374.00;5071853;28;21061;-60
2023/01/12 04:17:28;;;;;;;0.50;0.50;;;;;;;5.41;99.64;95341.19;5071903;28;20422;-60
2023/01/12 04:19:57;;;;;;;0.40;0.40;;;;;;;5.78;98.04;95389.69;5072303;28;20530;-60
2023/01/12 04:25:16;;;;;;;2.00;0.57;;;;;;;5.98;94.31;95399.78;5066386;28;20441;-60
2023/01/12 04:27:47;;;;;;;1.37;0.93;;;;;;;5.98;92.79;95394.50;5071673;28;20429;-59
2023/01/12 04:30:16;;;;;;;0.40;0.33;;;;;;;5.40;93.38;95323.81;5071997;28;20899;-60
2023/01/12 04:32:45;;;;;;;1.40;1.27;;;;;;;5.90;92.75;95395.69;5071261;28;20433;-59
2023/01/12 04:35:15;;;;;;;0.40;0.30;;;;;;;6.01;92.37;95394.84;5071472;28;20469;-59
2023/01/12 04:37:46;;;;;;;0.30;0.20;;;;;;;5.80;91.53;95379.72;5071781;28;20432;-59
2023/01/12 04:40:15;;;;;;;0.93;0.77;;;;;;;5.68;93.43;95397.41;5071524;28;20429;-59
2023/01/12 04:43:06;;;;;;;0.40;0.30;;;;;;;5.84;92.57;95401.09;5071773;28;20437;-59
2023/01/12 04:45:38;;;;;;;0.60;0.60;;;;;;;5.96;91.16;95407.09;5071399;28;20487;-58
2023/01/12 04:48:10;;;;;;;2.57;1.80;;;;;;;5.39;92.22;95348.50;5071351;28;20430;-59
2023/01/12 04:50:39;;;;;;;2.30;1.27;;;;;;;5.68;92.50;95384.25;5071145;28;20911;-59
2023/01/12 04:53:10;;;;;;;0.60;0.60;;;;;;;5.87;92.32;95398.78;5071254;28;20441;-60
2023/01/12 04:55:41;;;;;;;5.90;1.10;;;;;;;5.60;91.27;95358.34;5071624;28;20853;-60
2023/01/12 04:58:10;;;;;;;0.30;0.20;;;;;;;5.83;90.92;95412.63;5071396;28;20418;-60
2023/01/12 05:00:38;;;;;;;3.80;1.60;;;;;;;5.86;91.45;95414.81;5071120;28;20926;-60
2023/01/12 05:03:07;;;;;;;1.30;0.70;;;;;;;5.92;91.00;95419.16;5071190;28;20509;-60
2023/01/12 05:05:36;;;;;;;0.67;0.60;;;;;;;5.92;90.80;95411.25;5071112;28;20462;-59
2023/01/12 05:10:54;;;;;;;0.47;0.40;;;;;;;5.99;90.47;95419.78;5071118;28;20437;-59
2023/01/12 05:13:26;;;;;;;1.73;1.63;;;;;;;5.98;89.87;95418.19;5071268;28;20892;-59
2023/01/12 05:15:55;;;;;;;0.57;0.57;;;;;;;6.01;89.68;95429.03;5070988;28;20556;-60
2023/01/12 05:18:23;;;;;;;0.30;0.30;;;;;;;5.55;91.98;95426.59;5071316;28;20429;-60
2023/01/12 05:20:52;;;;;;;0.50;0.47;;;;;;;4.86;98.75;95435.44;5071434;28;20437;-59
2023/01/12 05:23:20;;;;;;;2.20;2.10;;;;;;;4.48;100.00;95433.31;5070988;28;20837;-58
2023/01/12 05:25:48;;;;;;;2.10;2.00;;;;;;;4.77;100.00;95435.03;5071003;28;20430;-59
2023/01/12 05:28:20;;;;;;;0.97;0.97;;;;;;;5.37;100.00;95437.28;5071396;28;20419;-59
2023/01/12 05:30:48;;;;;;;2.00;1.90;;;;;;;4.95;100.00;95432.25;5071013;28;20433;-59
2023/01/12 05:33:18;;;;;;;2.40;2.20;;;;;;;5.16;100.00;95409.03;5070985;28;20822;-59
2023/01/12 05:35:46;;;;;;;0.70;0.70;;;;;;;5.39;99.87;95430.00;5070583;28;20465;-59
2023/01/12 05:38:15;;;;;;;0.90;0.50;;;;;;;5.58;97.02;95420.88;5070470;28;20469;-59
2023/01/12 05:40:43;;;;;;;1.23;1.13;;;;;;;5.73;95.63;95429.03;5070289;28;20440;-58
2023/01/12 05:46:05;;;;;;;1.50;1.00;;;;;;;5.82;95.13;95438.13;5070775;28;20428;-58
2023/01/12 05:48:33;;;;;;;0.50;0.50;;;;;;;5.20;99.96;95415.41;5070990;28;20843;-58
2023/01/12 05:51:02;;;;;;;0.40;0.40;;;;;;;5.27;100.00;95434.47;5070447;28;20477;-58
2023/01/12 05:53:31;;;;;;;0.53;0.47;;;;;;;5.45;99.94;95436.91;5070987;28;20425;-58
2023/01/12 05:56:05;;;;;;;1.40;1.30;;;;;;;5.81;97.56;95439.19;5070607;28;20501;-58
2023/01/12 05:58:33;;;;;;;0.90;0.90;;;;;;;5.91;97.41;95442.03;5074286;28;20816;-58
2023/01/12 06:01:06;;;;;;;3.13;2.93;;;;;;;5.80;97.33;95437.56;5073846;28;20945;-59
2023/01/12 06:03:35;;;;;;;2.30;2.20;;;;;;;5.08;99.53;95363.69;5074429;28;20436;-58
2023/01/12 06:06:04;;;;;;;1.30;1.30;;;;;;;5.61;99.05;95449.34;5074081;28;20425;-58
2023/01/12 06:08:32;;;;;;;1.20;1.20;;;;;;;5.88;99.97;95439.84;5074091;28;20429;-58
2023/01/12 06:11:02;;;;;;;1.30;1.20;;;;;;;5.54;99.56;95448.69;5074476;28;20446;-58
2023/01/12 06:16:17;;;;;;;0.90;0.90;;;;;;;6.26;99.92;95449.72;5074144;28;20476;-59
2023/01/12 06:18:46;;;;;;;5.80;1.43;;;;;;;6.35;97.36;95453.53;5076406;28;20792;-58
2023/01/12 06:21:14;;;;;;;1.83;1.80;;;;;;;6.04;96.44;95398.81;5074214;28;20432;-58
2023/01/12 06:23:43;;;;;;;1.30;1.30;;;;;;;6.20;96.33;95450.66;5073812;28;20953;-58
2023/01/12 06:26:11;;;;;;;3.17;2.97;;;;;;;6.14;97.09;95441.91;5073872;28;20926;-59
2023/01/12 06:28:41;;;;;;;5.27;4.77;;;;;;;5.30;100.00;95453.19;5073698;28;20434;-59
2023/01/12 06:31:12;;;;;;;6.87;6.47;;;;;;;5.64;100.00;95451.50;5073738;28;20437;-59
2023/01/12 06:33:42;;;;;;;73.57;7.93;;;;;;;5.71;100.00;95460.03;5073794;28;20430;-59
2023/01/12 06:36:12;;;;;;;3.10;2.90;;;;;;;6.49;100.00;95454.00;5073646;28;20529;-59
2023/01/12 06:38:40;;;;;;;14.53;3.27;;;;;;;7.16;97.64;95458.13;5073655;28;20516;-59
2023/01/12 06:42:27;;;;;;;8.90;5.40;;;;;;;6.75;94.77;95430.47;5073546;28;20960;-60
2023/01/12 06:44:00;;;;;;;4.07;3.87;;;;;;;6.71;92.63;95386.38;5073346;28;20826;-59
2023/01/12 06:46:29;;;;;;;2.13;2.03;;;;;;;7.76;90.77;95460.72;5073382;28;20424;-58
2023/01/12 06:48:59;;;;;;;7.60;4.93;;;;;;;8.49;87.05;95461.94;5072659;28;20495;-57
2023/01/12 06:51:27;;;;;;;4.27;2.90;;;;;;;9.31;81.30;95456.94;5073412;28;20795;-58
2023/01/12 06:53:55;;;;;;;4.53;2.83;;;;;;;9.47;80.07;95458.59;5073370;28;20437;-59
2023/01/12 06:56:24;;;;;;;2.33;2.23;;;;;;;9.97;76.78;95450.00;5072823;28;20532;-58
2023/01/12 06:58:52;;;;;;;4.17;3.97;;;;;;;9.94;75.08;95451.31;5073014;28;20438;-58
2023/01/12 07:01:20;;;;;;;3.03;2.93;;;;;;;10.03;74.01;95439.16;5072823;28;20428;-58
2023/01/12 07:03:49;;;;;;;2.43;2.33;;;;;;;10.10;71.55;95466.19;5072657;28;20558;-58
2023/01/12 07:06:19;;;;;;;4.73;2.50;;;;;;;9.57;72.01;95475.31;5072871;28;20472;-58
2023/01/12 07:08:47;;;;;;;1.20;1.20;;;;;;;8.58;73.90;95457.78;5072857;28;20937;-58
2023/01/12 07:11:15;;;;;;;9.37;2.60;;;;;;;8.85;73.72;95469.88;5072842;28;20488;-58
2023/01/12 07:13:44;;;;;;;2.07;1.97;;;;;;;8.85;73.94;95467.22;5072925;28;20434;-59
2023/01/12 07:16:12;;;;;;;1.27;1.27;;;;;;;8.83;72.79;95456.13;5073107;28;20481;-59
2023/01/12 07:18:41;;;;;;;3.70;2.80;;;;;;;8.53;72.63;95411.00;5072565;28;20529;-58
2023/01/12 07:21:12;;;;;;;4.07;2.67;;;;;;;9.00;73.12;95477.13;5072696;28;20994;-59
2023/01/12 07:23:42;;;;;;;2.00;1.90;;;;;;;9.27;71.09;95414.31;5072617;28;20493;-58
2023/01/12 07:26:11;;;;;;;4.33;4.03;;;;;;;9.56;71.71;95465.75;5072715;28;20428;-58
2023/01/12 07:28:41;;;;;;;2.73;2.63;;;;;;;9.93;70.07;95470.94;5072755;28;20428;-59
2023/01/12 07:31:09;;;;;;;1.93;1.83;;;;;;;9.88;69.97;95467.47;5072717;28;20454;-59
2023/01/12 07:33:38;;;;;;;12.80;3.50;;;;;;;10.46;68.40;95474.22;5072530;28;20444;-58
2023/01/12 07:36:07;;;;;;;4.63;2.97;;;;;;;10.37;67.52;95466.00;5072034;28;20459;-58
2023/01/12 07:38:37;;;;;;;3.00;1.10;;;;;;;10.28;67.92;95461.47;5071925;28;20432;-58
2023/01/12 07:42:21;;;;;;;2.00;1.90;;;;;;;10.10;67.45;95466.19;5072964;28;20427;-58
2023/01/12 07:43:55;;;;;;;0.53;0.47;;;;;;;9.97;68.99;95466.69;5072084;28;20451;-58
2023/01/12 07:46:23;;;;;;;2.20;0.90;;;;;;;11.32;65.79;95474.94;5072511;28;20436;-58
2023/01/12 07:48:51;;;;;;;30.63;3.10;;;;;;;12.13;63.41;95459.47;5072250;28;20450;-58
2023/01/12 07:51:20;;;;;;;3.07;1.60;;;;;;;12.48;61.36;95411.38;5072542;28;20527;-59
2023/01/12 07:53:48;;;;;;;2.23;2.03;;;;;;;12.87;60.00;95461.06;5072126;28;20429;-58
2023/01/12 07:56:18;;;;;;;1.57;1.47;;;;;;;11.97;61.27;95468.59;5072050;28;20914;-58
2023/01/12 07:58:47;;;;;;;3.67;3.37;;;;;;;12.64;61.27;95463.38;5072131;28;20755;-58
2023/01/12 08:01:16;;;;;;;11.90;2.20;;;;;;;12.64;61.30;95466.03;5072120;28;20509;-59
2023/01/12 08:03:45;;;;;;;1.43;1.33;;;;;;;12.62;60.87;95457.53;5072006;28;20444;-60
2023/01/12 08:06:14;;;;;;;1.77;1.67;;;;;;;13.10;59.27;95385.84;5072427;28;20527;-61
2023/01/12 08:08:42;;;;;;;1.23;1.13;;;;;;;13.25;57.84;95457.53;5072297;28;20437;-62
2023/01/12 08:11:11;;;;;;;3.23;2.20;;;;;;;13.24;59.56;95459.41;5072017;28;20513;-63
2023/01/12 08:13:41;;;;;;;2.80;2.70;;;;;;;13.43;60.19;95459.47;5071905;28;20976;-66
2023/01/12 08:16:14;;;;;;;0.80;0.80;;;;;;;14.15;56.50;95423.66;5072186;28;20509;-68
2023/01/12 08:18:48;;;;;;;2.93;0.90;;;;;;;14.11;55.78;95459.97;5071872;28;20542;-72
2023/01/12 08:21:22;;;;;;;1.00;0.90;;;;;;;13.73;56.53;95461.00;5071744;28;20508;-75
2023/01/12 08:23:53;;;;;;;0.97;0.97;;;;;;;14.12;54.81;95456.19;5072338;28;20421;-74
2023/01/12 08:26:26;;;;;;;1.63;1.53;;;;;;;14.10;55.12;95465.56;5072285;28;20438;-74
2023/01/12 08:29:02;;;;;;;1.50;1.50;;;;;;;14.15;54.58;95465.50;5071904;28;20490;-75
2023/01/12 08:31:32;;;;;;;1.43;1.40;;;;;;;14.44;53.88;95459.00;5072000;28;20421;-75
2023/01/12 08:34:00;;;;;;;1.10;1.03;;;;;;;14.18;53.94;95465.72;5071850;28;20457;-72
2023/01/12 08:36:31;;;;;;;3.50;1.60;;;;;;;15.22;52.81;95455.56;5072129;28;20418;-69
2023/01/12 08:39:00;;;;;;;0.70;0.60;;;;;;;15.31;51.96;95444.97;5077243;28;20504;-66
2023/01/12 08:41:36;;;;;;;2.90;1.20;;;;;;;15.10;52.07;95444.56;5073936;28;20432;-64
2023/01/12 08:44:09;;;;;;;2.10;1.60;;;;;;;15.90;50.19;95447.59;5072052;28;20453;-63
2023/01/12 08:46:39;;;;;;;1.63;1.23;;;;;;;17.12;49.13;95441.84;5071803;28;20422;-63
2023/01/12 08:49:10;;;;;;;1.63;1.53;;;;;;;16.98;46.81;95376.06;5071740;28;20583;-62
2023/01/12 08:51:44;;;;;;;1.93;1.53;;;;;;;17.61;47.01;95431.97;5071597;28;21028;-62
2023/01/12 08:54:15;;;;;;;0.60;0.60;;;;;;;18.47;45.54;95435.63;5071644;28;20437;-61
2023/01/12 08:56:43;;;;;;;1.70;0.60;;;;;;;18.10;45.51;95430.84;5071718;28;20835;-61
2023/01/12 08:59:13;;;;;;;1.43;1.33;;;;;;;18.22;46.97;95428.31;5071403;28;20599;-61
2023/01/12 09:01:42;;;;;;;2.40;1.90;;;;;;;17.14;46.19;95387.94;5071573;28;20425;-61
2023/01/12 09:04:11;;;;;;;4.30;1.73;;;;;;;18.30;44.67;95427.56;5071887;28;20426;-61
2023/01/12 09:06:41;;;;;;;2.77;2.67;;;;;;;17.93;44.95;95395.97;5071389;28;20462;-62
2023/01/12 09:09:11;;;;;;;3.13;2.80;;;;;;;17.91;45.36;95408.91;5071104;28;20464;-62
2023/01/12 09:11:40;;;;;;;11.17;3.80;;;;;;;17.07;46.06;95430.47;5071657;28;20426;-62
2023/01/12 09:14:09;;;;;;;3.60;3.50;;;;;;;16.82;46.67;95425.75;5071005;28;20929;-61
2023/01/12 09:16:39;;;;;;;2.17;2.00;;;;;;;16.55;46.15;95276.00;5071457;28;20507;-61
2023/01/12 09:19:08;;;;;;;1.10;1.10;;;;;;;17.61;45.36;95426.59;5071092;28;20481;-61
2023/01/12 09:21:38;;;;;;;1.27;1.20;;;;;;;18.06;44.28;95414.59;5071079;28;20977;-61
2023/01/12 09:24:07;;;;;;;1.40;1.30;;;;;;;19.01;42.10;95410.78;5070525;28;20442;-61
2023/01/12 09:26:38;;;;;;;0.93;0.80;;;;;;;18.86;42.14;95399.75;5070694;28;20430;-60
2023/01/12 09:29:07;;;;;;;0.60;0.60;;;;;;;19.56;40.92;95412.69;5070354;28;20934;-61
2023/01/12 09:31:37;;;;;;;0.70;0.70;;;;;;;19.91;40.69;95368.34;5070626;28;20521;-61
2023/01/12 09:34:07;;;;;;;1.77;1.67;;;;;;;19.70;41.14;95407.88;5074212;28;20425;-61
2023/01/12 09:36:37;;;;;;;1.00;1.00;;;;;;;21.12;39.38;95400.50;5074698;28;20506;-60
2023/01/12 09:39:06;;;;;;;1.90;0.90;;;;;;;20.02;39.46;95391.06;5074159;28;20471;-64
2023/01/12 09:47:26;;;;;;;0.83;0.83;;;;;;;20.92;37.52;95385.94;5073955;28;20517;-60
2023/01/12 09:50:02;;;;;;;1.00;0.87;;;;;;;19.70;40.48;95359.47;5073772;28;21008;-60
2023/01/12 09:52:43;;;;;;;1.23;1.13;;;;;;;20.78;40.04;95391.59;5074519;28;20441;-61
2023/01/12 09:55:16;;;;;;;1.57;1.03;;;;;;;19.78;40.03;95392.81;5074570;28;20429;-61
2023/01/12 09:58:22;;;;;;;2.33;1.33;;;;;;;20.94;39.56;95386.38;5074595;28;20549;-61
2023/01/12 10:00:51;;;;;;;0.40;0.30;;;;;;;23.59;35.87;95378.91;5074545;28;20463;-62
2023/01/12 10:03:28;;;;;;;0.60;0.50;;;;;;;22.64;36.87;95376.38;5074220;28;20421;-62
2023/01/12 10:06:00;;;;;;;0.70;0.50;;;;;;;20.71;38.37;95385.97;5073681;28;20440;-61
2023/01/12 10:08:34;;;;;;;1.17;0.67;;;;;;;21.40;37.32;95371.78;5074404;28;20480;-61
2023/01/12 10:11:11;;;;;;;1.80;0.70;;;;;;;20.95;38.31;95374.47;5073650;28;20484;-62
2023/01/12 10:13:55;;;;;;;0.97;0.97;;;;;;;19.92;40.52;95369.94;5074432;28;20503;-62
2023/01/12 10:16:34;;;;;;;0.60;0.53;;;;;;;20.89;37.77;95293.09;5074349;28;20472;-61
2023/01/12 10:19:13;;;;;;;1.43;1.33;;;;;;;20.82;37.76;95362.88;5074004;28;20564;-61
2023/01/12 10:21:43;;;;;;;0.60;0.60;;;;;;;21.29;37.63;95295.16;5073985;28;20424;-61
2023/01/12 10:24:13;;;;;;;1.50;1.40;;;;;;;21.61;37.15;95353.56;5074108;28;20436;-62
2023/01/12 10:26:43;;;;;;;4.63;0.83;;;;;;;20.77;37.27;95355.00;5074047;28;20462;-62
2023/01/12 10:29:12;;;;;;;0.93;0.93;;;;;;;20.90;39.18;95345.03;5073803;28;20446;-62
2023/01/12 10:31:40;;;;;;;2.13;1.27;;;;;;;21.43;37.01;95336.84;5073453;28;20426;-62
2023/01/12 10:34:11;;;;;;;0.50;0.50;;;;;;;21.44;36.26;95291.78;5074095;28;20429;-62
2023/01/12 10:36:45;;;;;;;0.60;0.60;;;;;;;21.41;36.33;95341.00;5074104;28;20426;-62
2023/01/12 10:39:31;;;;;;;1.20;1.20;;;;;;;21.31;37.26;95334.13;5073984;28;20469;-61
2023/01/12 10:45:14;;;;;;;0.60;0.37;;;;;;;23.88;33.99;95291.03;5072944;28;20961;-63
2023/01/12 10:47:44;;;;;;;2.90;1.40;;;;;;;23.50;34.30;95309.88;5073954;28;20479;-63
2023/01/12 10:50:25;;;;;;;1.23;0.83;;;;;;;23.53;35.82;95301.06;5073886;28;20469;-62
2023/01/12 10:53:01;;;;;;;0.83;0.83;;;;;;;22.54;35.41;95293.09;5073801;28;20431;-62
2023/01/12 10:55:32;;;;;;;0.40;0.40;;;;;;;22.09;37.12;95248.28;5072700;28;20437;-62
2023/01/12 10:58:01;;;;;;;3.70;1.03;;;;;;;22.08;35.84;95275.63;5073068;28;20430;-62
2023/01/12 11:00:30;;;;;;;0.80;0.40;;;;;;;22.79;34.76;95255.94;5073418;28;20466;-62
2023/01/12 11:02:58;;;;;;;0.80;0.77;;;;;;;23.19;34.21;95284.38;5073221;28;20477;-62
2023/01/12 11:05:30;;;;;;;0.50;0.47;;;;;;;22.76;34.65;95284.44;5073134;28;20509;-62
2023/01/12 11:08:00;;;;;;;0.50;0.50;;;;;;;23.01;34.20;95217.50;5073385;28;20430;-62
2023/01/12 11:10:30;;;;;;;0.83;0.77;;;;;;;22.68;34.66;95267.28;5072746;28;20470;-62
2023/01/12 11:13:02;;;;;;;0.60;0.57;;;;;;;22.74;34.50;95263.16;5073498;28;20444;-62
2023/01/12 11:15:37;;;;;;;0.50;0.43;;;;;;;21.89;35.01;95241.16;5072781;28;20498;-62
2023/01/12 11:18:28;;;;;;;0.60;0.40;;;;;;;23.70;33.81;95262.78;5072800;28;20460;-62
2023/01/12 11:21:04;;;;;;;0.40;0.40;;;;;;;23.95;35.06;95270.31;5072441;28;20445;-62
2023/01/12 11:23:40;;;;;;;0.50;0.50;;;;;;;23.81;33.73;95225.88;5072985;28;20513;-62
2023/01/12 11:26:17;;;;;;;0.87;0.43;;;;;;;23.22;33.47;95228.81;5072872;28;20985;-61
2023/01/12 11:28:49;;;;;;;0.60;0.60;;;;;;;22.60;34.75;95260.06;5072791;28;20440;-61
2023/01/12 11:31:22;;;;;;;1.07;1.07;;;;;;;22.54;36.49;95264.16;5072595;28;20464;-62
2023/01/12 11:33:55;;;;;;;2.50;0.60;;;;;;;23.03;34.60;95250.38;5072772;28;20430;-62
2023/01/12 11:36:27;;;;;;;1.63;0.93;;;;;;;22.03;35.29;95251.56;5072703;28;20497;-63
2023/01/12 11:39:05;;;;;;;0.70;0.53;;;;;;;22.07;34.93;95253.25;5072714;28;20882;-62
2023/01/12 11:41:39;;;;;;;0.50;0.40;;;;;;;21.83;36.49;95225.53;5072630;28;20434;-63
2023/01/12 11:44:16;;;;;;;8.67;0.50;;;;;;;21.32;36.03;95241.38;5072629;28;20426;-63
2023/01/12 11:46:49;;;;;;;0.50;0.40;;;;;;;22.16;39.16;95236.13;5072544;28;20430;-55
2023/01/12 11:49:23;;;;;;;0.70;0.50;;;;;;;22.51;42.11;95237.84;5072606;28;20901;-56
2023/01/12 11:51:56;;;;;;;2.60;0.90;;;;;;;22.85;36.59;95233.72;5072145;28;20479;-56
2023/01/12 11:54:28;;;;;;;12.20;1.10;;;;;;;22.67;40.42;95233.25;5071528;28;20548;-56
2023/01/12 11:57:17;;;;;;;1.43;1.30;;;;;;;21.87;36.98;95231.81;5072176;28;20429;-56
2023/01/12 12:00:01;;;;;;;1.00;1.00;;;;;;;21.87;42.51;95234.53;5071939;28;20484;-56
2023/01/12 12:02:35;;;;;;;1.50;0.57;;;;;;;21.02;38.18;95240.00;5072181;28;20520;-56
2023/01/12 12:05:20;;;;;;;0.60;0.60;;;;;;;22.05;36.00;95227.72;5072272;28;21081;-56
2023/01/12 12:08:07;;;;;;;5.03;0.63;;;;;;;23.07;33.94;95226.91;5071612;28;20426;-56
2023/01/12 12:10:43;;;;;;;0.60;0.60;;;;;;;22.34;34.96;95221.94;5071866;28;20442;-56
2023/01/12 12:13:24;;;;;;;0.40;0.30;;;;;;;23.01;33.08;95217.50;5072004;28;20433;-56
2023/01/12 12:16:02;;;;;;;0.50;0.40;;;;;;;24.25;32.36;95215.59;5071602;28;20889;-55
2023/01/12 12:18:42;;;;;;;0.40;0.30;;;;;;;23.59;32.84;95219.25;5071727;28;20436;-55
2023/01/12 12:21:23;;;;;;;0.40;0.40;;;;;;;22.86;35.04;95223.69;5072010;28;20505;-56
2023/01/12 12:24:02;;;;;;;0.70;0.70;;;;;;;21.72;36.39;95221.72;5071458;28;20426;-56
2023/01/12 12:26:37;;;;;;;1.90;0.93;;;;;;;21.21;36.94;95180.94;5071616;28;20960;-56
2023/01/12 12:29:20;;;;;;;0.90;0.70;;;;;;;21.67;35.85;95230.84;5071346;28;20483;-56